createdAt,value
2023-03-03T00:01:28.111Z,81.21
2023-03-03T00:03:58.126Z,81.02
2023-03-03T00:06:29.988Z,81.33
2023-03-03T00:08:59.782Z,81.49
2023-03-03T00:11:29.479Z,81.59
2023-03-03T00:14:01.666Z,81.57
2023-03-03T00:16:32.684Z,81.56
2023-03-03T00:19:02.751Z,81.53
2023-03-03T00:21:34.455Z,81.40
2023-03-03T00:24:22.869Z,81.65
2023-03-03T00:26:55.517Z,81.96
2023-03-03T00:29:39.249Z,82.01
2023-03-03T00:32:27.350Z,82.17
2023-03-03T00:34:58.618Z,82.08
2023-03-03T00:37:34.403Z,82.08
2023-03-03T00:40:20.332Z,82.27
2023-03-03T00:42:52.877Z,81.95
2023-03-03T00:45:43.670Z,82.44
2023-03-03T00:48:25.884Z,82.36
2023-03-03T00:50:56.674Z,82.60
2023-03-03T00:53:27.975Z,82.46
2023-03-03T00:55:57.702Z,82.79
2023-03-03T00:58:27.948Z,83.07
2023-03-03T01:01:01.026Z,82.82
2023-03-03T01:03:40.575Z,83.14
2023-03-03T01:06:10.521Z,83.06
2023-03-03T01:08:40.390Z,83.50
2023-03-03T01:11:13.596Z,83.75
2023-03-03T01:13:44.908Z,83.27
2023-03-03T01:16:17.247Z,83.35
2023-03-03T01:18:46.834Z,83.30
2023-03-03T01:21:16.620Z,83.38
2023-03-03T01:23:46.231Z,83.60
2023-03-03T01:26:15.929Z,83.41
2023-03-03T01:28:45.628Z,83.54
2023-03-03T01:31:17.831Z,83.52
2023-03-03T01:33:47.521Z,83.46
2023-03-03T01:36:17.137Z,83.37
2023-03-03T01:38:46.712Z,83.42
2023-03-03T01:41:16.450Z,83.34
2023-03-03T01:43:48.145Z,83.55
2023-03-03T01:46:54.479Z,83.54
2023-03-03T01:49:26.398Z,83.30
2023-03-03T01:51:58.502Z,83.37
2023-03-03T01:54:31.207Z,83.34
2023-03-03T01:57:04.545Z,83.38
2023-03-03T01:59:37.884Z,83.67
2023-03-03T02:02:11.342Z,83.69
2023-03-03T02:04:40.992Z,83.71
2023-03-03T02:07:12.017Z,83.70
2023-03-03T02:09:48.142Z,84.07
2023-03-03T02:12:21.651Z,84.25
2023-03-03T02:14:51.254Z,84.46
2023-03-03T02:17:23.796Z,84.50
2023-03-03T02:19:59.062Z,84.65
2023-03-03T02:22:37.908Z,84.69
2023-03-03T02:25:08.898Z,84.59
2023-03-03T02:27:41.118Z,84.79
2023-03-03T02:30:20.154Z,84.68
2023-03-03T02:32:50.159Z,84.88
2023-03-03T02:35:33.092Z,85.07
2023-03-03T02:38:12.754Z,84.81
2023-03-03T02:40:46.712Z,84.82
2023-03-03T02:43:20.805Z,85.08
2023-03-03T02:45:50.485Z,85.10
2023-03-03T02:48:20.102Z,84.79
2023-03-03T02:50:49.708Z,84.99
2023-03-03T02:53:19.341Z,84.83
2023-03-03T02:55:49.021Z,84.82
2023-03-03T02:58:21.635Z,84.74
2023-03-03T03:00:51.766Z,84.62
2023-03-03T03:03:25.166Z,84.36
2023-03-03T03:05:55.306Z,84.11
2023-03-03T03:08:26.582Z,83.94
2023-03-03T03:10:56.975Z,83.86
2023-03-03T03:13:31.204Z,84.01
2023-03-03T03:16:00.926Z,83.84
2023-03-03T03:18:30.740Z,83.88
2023-03-03T03:21:08.304Z,84.05
2023-03-03T03:23:38.499Z,84.33
2023-03-03T03:26:09.054Z,84.49
2023-03-03T03:28:44.355Z,84.27
2023-03-03T03:31:14.230Z,84.38
2023-03-03T03:33:43.828Z,84.32
2023-03-03T03:36:14.341Z,84.20
2023-03-03T03:38:44.873Z,84.05
2023-03-03T03:41:15.859Z,84.40
2023-03-03T03:43:48.156Z,84.82
2023-03-03T03:46:18.603Z,85.02
2023-03-03T03:48:48.428Z,84.73
2023-03-03T03:51:20.923Z,84.71
2023-03-03T03:53:50.884Z,84.49
2023-03-03T03:56:20.580Z,84.65
2023-03-03T03:58:56.116Z,84.71
2023-03-03T04:01:26.496Z,84.92
2023-03-03T04:03:56.416Z,85.04
2023-03-03T04:06:27.237Z,85.11
2023-03-03T04:08:58.067Z,84.80
2023-03-03T04:11:29.106Z,84.98
2023-03-03T04:14:01.336Z,84.27
2023-03-03T04:16:31.259Z,84.33
2023-03-03T04:19:00.883Z,84.21
2023-03-03T04:21:30.704Z,84.19
2023-03-03T04:24:02.155Z,84.02
2023-03-03T04:26:33.755Z,84.17
2023-03-03T04:29:08.608Z,84.03
2023-03-03T04:31:38.342Z,84.09
2023-03-03T04:34:10.718Z,84.02
2023-03-03T04:36:41.268Z,84.21
2023-03-03T04:39:11.000Z,84.49
2023-03-03T04:41:41.249Z,84.43
2023-03-03T04:44:13.902Z,84.42
2023-03-03T04:46:44.063Z,84.42
2023-03-03T04:49:14.504Z,84.71
2023-03-03T04:51:45.601Z,84.69
2023-03-03T04:54:15.562Z,84.68
2023-03-03T04:56:46.000Z,84.53
2023-03-03T04:59:18.708Z,84.82
2023-03-03T05:01:49.400Z,84.81
2023-03-03T05:04:19.212Z,84.75
2023-03-03T05:06:48.881Z,84.68
2023-03-03T05:09:18.496Z,84.82
2023-03-03T05:11:48.139Z,84.85
2023-03-03T05:14:20.614Z,84.78
2023-03-03T05:16:50.490Z,85.07
2023-03-03T05:19:20.087Z,85.10
2023-03-03T05:21:49.719Z,85.06
2023-03-03T05:24:19.321Z,84.91
2023-03-03T05:26:48.932Z,85.07
2023-03-03T05:29:21.107Z,84.89
2023-03-03T05:31:50.765Z,84.72
2023-03-03T05:34:20.406Z,84.96
2023-03-03T05:36:49.993Z,84.51
2023-03-03T05:39:19.702Z,84.50
2023-03-03T05:41:49.309Z,84.10
2023-03-03T05:44:21.503Z,84.16
2023-03-03T05:46:51.190Z,84.00
2023-03-03T05:49:20.830Z,83.97
2023-03-03T05:51:50.476Z,84.24
2023-03-03T05:54:20.068Z,83.89
2023-03-03T05:56:49.651Z,84.27
2023-03-03T05:59:22.430Z,83.88
2023-03-03T06:01:52.094Z,83.77
2023-03-03T06:04:21.740Z,83.89
2023-03-03T06:06:51.373Z,83.62
2023-03-03T06:09:21.520Z,83.53
2023-03-03T06:11:52.941Z,83.54
2023-03-03T06:14:27.202Z,83.24
2023-03-03T06:16:57.912Z,83.09
2023-03-03T06:19:27.746Z,82.91
2023-03-03T06:21:59.513Z,82.81
2023-03-03T06:24:31.169Z,82.74
2023-03-03T06:27:00.992Z,82.50
2023-03-03T06:29:33.206Z,82.40
2023-03-03T06:32:03.122Z,82.49
2023-03-03T06:34:32.870Z,82.62
2023-03-03T06:37:02.502Z,82.57
2023-03-03T06:39:32.123Z,82.37
2023-03-03T06:42:01.741Z,82.51
2023-03-03T06:44:33.920Z,82.51
2023-03-03T06:47:03.536Z,82.43
2023-03-03T06:49:33.194Z,82.33
2023-03-03T06:52:04.482Z,82.53
2023-03-03T06:54:34.092Z,82.20
2023-03-03T06:57:05.230Z,82.14
2023-03-03T06:59:37.422Z,82.13
2023-03-03T07:02:16.098Z,82.07
2023-03-03T07:04:47.037Z,81.91
2023-03-03T07:07:20.646Z,81.72
2023-03-03T07:09:51.941Z,81.63
2023-03-03T07:12:23.488Z,81.69
2023-03-03T07:15:00.931Z,81.85
2023-03-03T07:17:30.526Z,81.95
2023-03-03T07:20:00.142Z,81.97
2023-03-03T07:22:31.116Z,82.16
2023-03-03T07:25:03.485Z,82.17
2023-03-03T07:27:34.430Z,82.23
2023-03-03T07:30:21.357Z,82.13
2023-03-03T07:32:50.983Z,81.80
2023-03-03T07:35:33.909Z,81.99
2023-03-03T07:38:04.280Z,81.68
2023-03-03T07:40:39.105Z,81.73
2023-03-03T07:43:33.644Z,81.38
2023-03-03T07:46:21.309Z,81.13
2023-03-03T07:48:51.101Z,81.11
2023-03-03T07:51:25.572Z,80.87
2023-03-03T07:53:56.184Z,80.90
2023-03-03T07:56:32.059Z,80.69
2023-03-03T07:59:01.647Z,80.88
2023-03-03T08:01:45.264Z,80.43
2023-03-03T08:04:20.972Z,80.22
2023-03-03T08:06:55.199Z,79.91
2023-03-03T08:09:29.379Z,79.48
2023-03-03T08:12:03.006Z,79.51
2023-03-03T08:14:34.357Z,79.15
2023-03-03T08:17:10.782Z,79.20
2023-03-03T08:19:40.359Z,78.76
2023-03-03T08:22:15.638Z,78.22
2023-03-03T08:24:45.252Z,77.94
2023-03-03T08:27:14.912Z,77.70
2023-03-03T08:29:44.551Z,77.57
2023-03-03T08:32:16.894Z,76.93
2023-03-03T08:34:46.738Z,76.64
2023-03-03T08:37:16.385Z,76.87
2023-03-03T08:39:46.164Z,76.72
2023-03-03T08:42:16.351Z,76.79
2023-03-03T08:44:46.043Z,76.72
2023-03-03T08:47:18.279Z,76.63
2023-03-03T08:49:47.923Z,76.73
2023-03-03T08:52:17.625Z,76.34
2023-03-03T08:54:47.356Z,75.60
2023-03-03T08:57:17.030Z,75.50
2023-03-03T08:59:47.844Z,75.45
2023-03-03T09:02:20.243Z,75.32
2023-03-03T09:04:49.894Z,74.94
2023-03-03T09:07:19.792Z,74.87
2023-03-03T09:09:49.919Z,75.17
2023-03-03T09:12:21.253Z,74.94
2023-03-03T09:14:50.885Z,74.80
2023-03-03T09:17:33.661Z,74.57
2023-03-03T09:20:13.864Z,74.61
2023-03-03T09:22:43.669Z,74.67
2023-03-03T09:25:25.920Z,74.50
2023-03-03T09:27:56.586Z,74.29
2023-03-03T09:30:40.586Z,74.30
2023-03-03T09:33:29.237Z,74.02
2023-03-03T09:36:07.290Z,73.91
2023-03-03T09:38:38.776Z,73.96
2023-03-03T09:41:33.974Z,74.63
2023-03-03T09:44:19.309Z,74.72
2023-03-03T09:46:58.076Z,74.67
2023-03-03T09:49:34.798Z,74.39
2023-03-03T09:52:17.551Z,74.23
2023-03-03T09:55:03.598Z,74.17
2023-03-03T09:57:51.812Z,73.84
2023-03-03T10:00:38.407Z,73.65
2023-03-03T10:03:40.602Z,73.46
2023-03-03T10:06:20.300Z,73.43
2023-03-03T10:08:58.740Z,73.62
2023-03-03T10:11:32.873Z,73.36
2023-03-03T10:14:29.801Z,73.47
2023-03-03T10:17:10.837Z,72.90
2023-03-03T10:19:42.172Z,72.79
2023-03-03T10:22:24.432Z,72.73
2023-03-03T10:25:06.343Z,72.46
2023-03-03T10:28:04.917Z,72.25
2023-03-03T10:30:54.783Z,72.55
2023-03-03T10:33:35.886Z,72.38
2023-03-03T10:36:25.772Z,72.01
2023-03-03T10:39:06.400Z,71.93
2023-03-03T10:41:46.813Z,71.07
2023-03-03T10:44:30.538Z,70.54
2023-03-03T10:47:07.688Z,70.33
2023-03-03T10:49:45.554Z,70.16
2023-03-03T10:52:25.804Z,69.97
2023-03-03T10:55:11.434Z,69.83
2023-03-03T10:57:45.968Z,69.45
2023-03-03T11:00:25.115Z,69.30
2023-03-03T11:03:09.862Z,69.17
2023-03-03T11:05:43.600Z,69.27
2023-03-03T11:08:20.045Z,69.29
2023-03-03T11:11:03.314Z,69.00
2023-03-03T11:13:40.499Z,68.84
2023-03-03T11:16:21.365Z,69.01
2023-03-03T11:19:05.031Z,68.63
2023-03-03T11:21:37.997Z,68.36
2023-03-03T11:24:26.940Z,67.96
2023-03-03T11:27:12.519Z,67.24
2023-03-03T11:29:58.679Z,66.85
2023-03-03T11:32:38.199Z,66.12
2023-03-03T11:35:20.705Z,66.30
2023-03-03T11:37:59.782Z,65.64
2023-03-03T11:40:33.488Z,65.49
2023-03-03T11:43:10.875Z,65.40
2023-03-03T11:45:43.846Z,65.46
2023-03-03T11:48:19.767Z,65.07
2023-03-03T11:50:56.463Z,64.48
2023-03-03T11:53:34.521Z,64.20
2023-03-03T11:56:10.301Z,64.38
2023-03-03T11:58:46.427Z,64.05
2023-03-03T12:01:22.319Z,63.54
2023-03-03T12:03:55.404Z,63.19
2023-03-03T12:06:29.344Z,63.10
2023-03-03T12:09:29.408Z,63.07
2023-03-03T12:12:06.428Z,63.08
2023-03-03T12:14:56.498Z,63.23
2023-03-03T12:17:38.938Z,63.27
2023-03-03T12:20:13.513Z,62.65
2023-03-03T12:22:47.184Z,62.27
2023-03-03T12:25:31.500Z,61.82
2023-03-03T12:28:06.095Z,61.45
2023-03-03T12:31:09.116Z,60.43
2023-03-03T12:33:53.202Z,60.34
2023-03-03T12:36:32.029Z,60.57
2023-03-03T12:39:05.628Z,61.00
2023-03-03T12:41:39.923Z,61.09
2023-03-03T12:44:15.505Z,61.13
2023-03-03T12:46:56.346Z,61.25
2023-03-03T12:49:37.219Z,61.16
2023-03-03T12:52:22.891Z,61.32
2023-03-03T12:55:00.235Z,61.35
2023-03-03T12:57:37.782Z,61.19
2023-03-03T13:00:25.710Z,60.85
2023-03-03T13:03:07.160Z,60.49
2023-03-03T13:05:48.176Z,60.18
2023-03-03T13:08:31.340Z,59.82
2023-03-03T13:11:08.251Z,59.38
2023-03-03T13:13:40.630Z,59.77
2023-03-03T13:16:17.063Z,60.05
2023-03-03T13:18:58.201Z,60.48
2023-03-03T13:21:32.065Z,60.23
2023-03-03T13:24:05.323Z,59.88
2023-03-03T13:26:39.117Z,59.71
2023-03-03T13:29:16.475Z,60.46
2023-03-03T13:31:50.599Z,61.13
2023-03-03T13:34:26.572Z,61.34
2023-03-03T13:36:59.880Z,61.14
2023-03-03T13:39:32.891Z,60.95
2023-03-03T13:42:04.962Z,60.47
2023-03-03T13:44:41.289Z,60.48
2023-03-03T13:47:17.503Z,60.71
2023-03-03T13:50:02.257Z,61.42
2023-03-03T13:52:35.055Z,61.63
2023-03-03T13:55:26.643Z,61.73
2023-03-03T13:58:03.928Z,61.93
2023-03-03T14:00:39.660Z,62.14
2023-03-03T14:03:23.287Z,62.11
2023-03-03T14:05:59.547Z,62.25
2023-03-03T14:08:40.441Z,62.37
2023-03-03T14:11:14.166Z,62.55
2023-03-03T14:13:49.639Z,62.88
2023-03-03T14:16:22.452Z,63.35
2023-03-03T14:18:58.714Z,64.07
2023-03-03T14:21:37.050Z,64.38
2023-03-03T14:24:11.126Z,64.63
2023-03-03T14:26:49.745Z,64.89
2023-03-03T14:29:27.620Z,65.02
2023-03-03T14:31:57.991Z,65.12
2023-03-03T14:34:43.138Z,65.31
2023-03-03T14:37:26.727Z,65.59
2023-03-03T14:40:19.440Z,65.60
2023-03-03T14:42:51.572Z,65.69
2023-03-03T14:45:32.439Z,65.99
2023-03-03T14:48:02.854Z,66.14
2023-03-03T14:50:38.638Z,66.27
2023-03-03T14:53:23.142Z,66.62
2023-03-03T14:55:53.209Z,66.75
2023-03-03T14:58:31.821Z,66.63
2023-03-03T15:01:15.472Z,67.04
2023-03-03T15:03:51.371Z,67.20
2023-03-03T15:06:38.176Z,67.45
2023-03-03T15:09:27.997Z,67.38
2023-03-03T15:11:59.006Z,67.64
2023-03-03T15:14:34.491Z,67.71
2023-03-03T15:17:22.309Z,68.20
2023-03-03T15:20:10.546Z,68.21
2023-03-03T15:22:50.405Z,68.34
2023-03-03T15:25:42.522Z,68.41
2023-03-03T15:28:27.742Z,68.37
2023-03-03T15:31:01.959Z,68.43
2023-03-03T15:33:36.419Z,68.51
2023-03-03T15:36:11.822Z,68.60
2023-03-03T15:38:49.172Z,68.71
2023-03-03T15:41:29.694Z,68.80
2023-03-03T15:44:06.505Z,69.01
2023-03-03T15:46:47.943Z,68.90
2023-03-03T15:49:28.906Z,69.11
2023-03-03T15:52:12.613Z,68.98
2023-03-03T15:54:47.500Z,69.11
2023-03-03T15:57:24.945Z,69.14
2023-03-03T16:00:06.494Z,69.28
2023-03-03T16:02:49.946Z,69.27
2023-03-03T16:05:23.720Z,69.47
2023-03-03T16:08:01.671Z,69.56
2023-03-03T16:10:37.601Z,69.45
2023-03-03T16:13:26.201Z,69.40
2023-03-03T16:16:03.855Z,69.42
2023-03-03T16:18:41.230Z,69.72
2023-03-03T16:21:23.129Z,69.83
2023-03-03T16:23:53.678Z,69.81
2023-03-03T16:26:33.388Z,69.99
2023-03-03T16:29:16.414Z,70.18
2023-03-03T16:31:48.905Z,70.00
2023-03-03T16:34:21.883Z,70.43
2023-03-03T16:36:57.668Z,70.49
2023-03-03T16:39:31.867Z,70.38
2023-03-03T16:42:03.055Z,70.69
2023-03-03T16:44:43.249Z,70.60
2023-03-03T16:47:22.381Z,70.62
2023-03-03T16:49:57.565Z,70.69
2023-03-03T16:52:30.545Z,70.98
2023-03-03T16:55:03.065Z,70.90
2023-03-03T16:57:37.369Z,71.04
2023-03-03T17:00:12.576Z,71.13
2023-03-03T17:02:52.017Z,71.37
2023-03-03T17:05:28.198Z,71.64
2023-03-03T17:08:16.913Z,71.70
2023-03-03T17:10:53.187Z,71.89
2023-03-03T17:13:43.572Z,72.19
2023-03-03T17:16:20.233Z,72.44
2023-03-03T17:18:58.924Z,72.65
2023-03-03T17:21:38.196Z,72.83
2023-03-03T17:24:15.041Z,73.03
2023-03-03T17:26:56.693Z,72.94
2023-03-03T17:29:54.364Z,73.33
2023-03-03T17:32:37.891Z,73.27
2023-03-03T17:35:17.634Z,73.30
2023-03-03T17:37:52.095Z,73.52
2023-03-03T17:40:28.708Z,73.75
2023-03-03T17:43:02.177Z,73.87
2023-03-03T17:45:34.189Z,74.14
2023-03-03T17:48:19.747Z,74.38
2023-03-03T17:51:03.248Z,74.66
2023-03-03T17:54:04.507Z,74.94
2023-03-03T17:56:36.261Z,75.11
2023-03-03T17:59:36.103Z,75.57
2023-03-03T18:02:36.932Z,75.66
2023-03-03T18:05:37.490Z,75.72
2023-03-03T18:08:22.313Z,75.95
2023-03-03T18:11:14.430Z,76.27
2023-03-03T18:14:17.036Z,76.59
2023-03-03T18:17:13.728Z,76.67
2023-03-03T18:20:06.342Z,76.93
2023-03-03T18:22:45.048Z,77.06
2023-03-03T18:25:16.253Z,77.34
2023-03-03T18:27:46.093Z,77.44
2023-03-03T18:30:33.508Z,77.89
2023-03-03T18:33:10.342Z,78.09
2023-03-03T18:35:41.999Z,78.17
2023-03-03T18:38:34.650Z,78.47
2023-03-03T18:41:05.089Z,78.53
2023-03-03T18:43:59.689Z,78.73
2023-03-03T18:46:48.528Z,79.04
2023-03-03T18:49:19.273Z,79.07
2023-03-03T18:52:19.697Z,79.00
2023-03-03T18:55:06.094Z,79.47
2023-03-03T18:57:35.658Z,79.14
2023-03-03T19:00:17.629Z,79.41
2023-03-03T19:02:54.963Z,79.63
2023-03-03T19:05:28.728Z,79.52
2023-03-03T19:08:03.040Z,79.62
2023-03-03T19:10:50.269Z,79.64
2023-03-03T19:13:44.738Z,79.25
2023-03-03T19:16:31.458Z,78.86
2023-03-03T19:19:03.597Z,79.01
2023-03-03T19:21:35.166Z,78.79
2023-03-03T19:24:06.608Z,78.68
2023-03-03T19:27:14.229Z,78.77
2023-03-03T19:30:22.638Z,78.46
2023-03-03T19:33:21.395Z,78.46
2023-03-03T19:36:10.395Z,78.38
2023-03-03T19:38:45.960Z,78.35
2023-03-03T19:41:24.240Z,78.32
2023-03-03T19:44:02.994Z,78.30
2023-03-03T19:46:50.473Z,77.99
2023-03-03T19:49:37.354Z,77.86
2023-03-03T19:52:11.674Z,77.86
2023-03-03T19:54:52.539Z,77.84
2023-03-03T19:57:28.026Z,77.47
2023-03-03T20:00:02.945Z,77.43
2023-03-03T20:02:51.593Z,77.35
2023-03-03T20:05:30.692Z,77.36
2023-03-03T20:08:04.912Z,77.09
2023-03-03T20:10:41.749Z,77.16
2023-03-03T20:13:44.622Z,76.71
2023-03-03T20:16:26.753Z,76.61
2023-03-03T20:19:22.182Z,76.52
2023-03-03T20:22:03.495Z,76.27
2023-03-03T20:24:45.525Z,76.34
2023-03-03T20:27:18.320Z,76.15
2023-03-03T20:30:08.383Z,76.27
2023-03-03T20:32:49.030Z,76.35
2023-03-03T20:35:28.473Z,76.13
2023-03-03T20:38:07.193Z,76.34
2023-03-03T20:40:39.610Z,75.91
2023-03-03T20:43:19.337Z,76.18
2023-03-03T20:45:54.940Z,75.86
2023-03-03T20:48:39.681Z,76.11
2023-03-03T20:51:13.815Z,76.06
2023-03-03T20:53:50.801Z,75.84
2023-03-03T20:56:23.563Z,75.72
2023-03-03T20:59:03.475Z,75.96
2023-03-03T21:01:38.905Z,75.89
2023-03-03T21:04:22.717Z,75.89
2023-03-03T21:06:52.817Z,75.68
2023-03-03T21:09:30.507Z,75.61
2023-03-03T21:12:01.186Z,75.42
2023-03-03T21:14:32.100Z,75.33
2023-03-03T21:17:03.156Z,75.46
2023-03-03T21:19:33.904Z,75.47
2023-03-03T21:22:04.318Z,75.53
2023-03-03T21:24:53.494Z,75.33
2023-03-03T21:27:31.117Z,75.25
2023-03-03T21:30:09.470Z,75.20
2023-03-03T21:32:42.658Z,75.28
2023-03-03T21:35:14.677Z,75.03
2023-03-03T21:37:50.366Z,75.24
2023-03-03T21:40:25.499Z,74.90
2023-03-03T21:42:56.419Z,74.97
2023-03-03T21:45:26.323Z,75.11
2023-03-03T21:47:59.294Z,74.92
2023-03-03T21:50:32.863Z,75.15
2023-03-03T21:53:02.431Z,74.82
2023-03-03T21:55:34.536Z,74.84
2023-03-03T21:58:04.053Z,74.88
2023-03-03T22:00:33.659Z,74.85
2023-03-03T22:03:03.303Z,74.96
2023-03-03T22:05:32.846Z,74.67
2023-03-03T22:08:02.623Z,74.74
2023-03-03T22:10:34.722Z,74.64
2023-03-03T22:13:04.309Z,74.91
2023-03-03T22:15:34.059Z,74.94
2023-03-03T22:18:03.634Z,75.00
2023-03-03T22:20:33.127Z,74.81
2023-03-03T22:23:02.642Z,75.05
2023-03-03T22:25:34.743Z,75.01
2023-03-03T22:28:04.275Z,74.98
2023-03-03T22:30:33.766Z,74.83
2023-03-03T22:33:03.337Z,74.91
2023-03-03T22:35:32.943Z,75.03
2023-03-03T22:38:03.446Z,74.83
2023-03-03T22:40:35.618Z,74.93
2023-03-03T22:43:06.435Z,74.90
2023-03-03T22:45:36.742Z,75.09
2023-03-03T22:48:06.466Z,75.09
2023-03-03T22:50:39.442Z,74.99
2023-03-03T22:53:09.250Z,75.05
2023-03-03T22:55:41.780Z,75.06
2023-03-03T22:58:11.761Z,75.04
2023-03-03T23:00:42.646Z,75.29
2023-03-03T23:03:13.376Z,75.33
2023-03-03T23:05:42.982Z,75.15
2023-03-03T23:08:15.349Z,75.12
2023-03-03T23:10:47.586Z,75.32
2023-03-03T23:13:17.388Z,75.37
2023-03-03T23:15:46.992Z,75.34
2023-03-03T23:18:16.649Z,75.41
2023-03-03T23:20:46.364Z,75.29
2023-03-03T23:23:16.210Z,75.31
2023-03-03T23:25:48.623Z,75.47
2023-03-03T23:28:19.268Z,75.58
2023-03-03T23:30:50.546Z,75.31
2023-03-03T23:33:21.518Z,75.29
2023-03-03T23:35:51.097Z,75.50
2023-03-03T23:38:20.603Z,75.34
2023-03-03T23:40:53.366Z,75.50
2023-03-03T23:43:22.861Z,75.28
2023-03-03T23:45:52.381Z,75.52
2023-03-03T23:48:22.876Z,75.53
2023-03-03T23:50:52.357Z,75.34
2023-03-03T23:53:21.970Z,75.59
2023-03-03T23:55:54.035Z,75.63
2023-03-03T23:58:23.516Z,75.56
